sensor_id;sensor_type;location;lat;lon;timestamp;P1;durP1;ratioP1;P2;durP2;ratioP2
52396;SDS011;38322;53.108;6.308;2023-01-05T06:03:36;25.42;;;5.25;;
52396;SDS011;38322;53.108;6.308;2023-01-05T06:06:02;23.00;;;5.20;;
52396;SDS011;38322;53.108;6.308;2023-01-05T06:08:29;25.40;;;4.43;;
52396;SDS011;38322;53.108;6.308;2023-01-05T06:10:55;26.30;;;5.10;;
52396;SDS011;38322;53.108;6.308;2023-01-05T06:13:22;15.27;;;3.90;;
52396;SDS011;38322;53.108;6.308;2023-01-05T06:15:48;17.05;;;3.35;;
52396;SDS011;38322;53.108;6.308;2023-01-05T06:18:14;14.68;;;4.05;;
52396;SDS011;38322;53.108;6.308;2023-01-05T06:20:41;31.63;;;6.65;;
52396;SDS011;38322;53.108;6.308;2023-01-05T06:23:07;19.50;;;4.45;;
52396;SDS011;38322;53.108;6.308;2023-01-05T06:25:33;22.85;;;3.83;;
52396;SDS011;38322;53.108;6.308;2023-01-05T06:27:59;28.73;;;4.13;;
52396;SDS011;38322;53.108;6.308;2023-01-05T06:30:26;18.40;;;3.42;;
52396;SDS011;38322;53.108;6.308;2023-01-05T06:32:52;23.50;;;4.05;;
52396;SDS011;38322;53.108;6.308;2023-01-05T06:35:17;26.20;;;4.30;;
52396;SDS011;38322;53.108;6.308;2023-01-05T06:37:43;21.17;;;4.18;;
52396;SDS011;38322;53.108;6.308;2023-01-05T06:40:09;27.40;;;5.57;;
52396;SDS011;38322;53.108;6.308;2023-01-05T06:42:37;22.02;;;5.53;;
52396;SDS011;38322;53.108;6.308;2023-01-05T06:45:03;30.83;;;5.32;;
52396;SDS011;38322;53.108;6.308;2023-01-05T06:47:30;15.95;;;2.95;;
52396;SDS011;38322;53.108;6.308;2023-01-05T06:49:56;20.23;;;3.30;;
52396;SDS011;38322;53.108;6.308;2023-01-05T06:52:22;29.20;;;4.95;;
52396;SDS011;38322;53.108;6.308;2023-01-05T06:54:48;24.27;;;3.50;;
52396;SDS011;38322;53.108;6.308;2023-01-05T06:57:14;18.08;;;4.40;;
52396;SDS011;38322;53.108;6.308;2023-01-05T06:59:40;17.90;;;4.22;;
52396;SDS011;38322;53.108;6.308;2023-01-05T07:02:11;18.63;;;3.83;;
52396;SDS011;38322;53.108;6.308;2023-01-05T07:04:38;18.63;;;4.25;;
52396;SDS011;38322;53.108;6.308;2023-01-05T07:07:04;22.50;;;3.58;;
52396;SDS011;38322;53.108;6.308;2023-01-05T07:09:30;22.88;;;5.20;;
52396;SDS011;38322;53.108;6.308;2023-01-05T07:11:56;21.88;;;3.15;;
52396;SDS011;38322;53.108;6.308;2023-01-05T07:14:21;25.85;;;3.45;;
52396;SDS011;38322;53.108;6.308;2023-01-05T07:16:47;22.30;;;3.05;;
52396;SDS011;38322;53.108;6.308;2023-01-05T07:19:13;21.83;;;5.13;;
52396;SDS011;38322;53.108;6.308;2023-01-05T07:21:39;15.40;;;4.03;;
52396;SDS011;38322;53.108;6.308;2023-01-05T07:24:05;18.45;;;3.63;;
52396;SDS011;38322;53.108;6.308;2023-01-05T07:26:31;21.38;;;5.65;;
52396;SDS011;38322;53.108;6.308;2023-01-05T07:28:57;19.02;;;2.67;;
52396;SDS011;38322;53.108;6.308;2023-01-05T07:31:23;18.33;;;3.83;;
52396;SDS011;38322;53.108;6.308;2023-01-05T07:33:49;13.93;;;2.85;;
52396;SDS011;38322;53.108;6.308;2023-01-05T07:36:15;13.35;;;2.10;;
52396;SDS011;38322;53.108;6.308;2023-01-05T07:38:41;22.45;;;4.15;;
52396;SDS011;38322;53.108;6.308;2023-01-05T07:41:07;16.15;;;3.15;;
52396;SDS011;38322;53.108;6.308;2023-01-05T07:43:33;15.07;;;2.58;;
52396;SDS011;38322;53.108;6.308;2023-01-05T07:46:00;17.48;;;2.80;;
52396;SDS011;38322;53.108;6.308;2023-01-05T07:48:27;20.67;;;2.35;;
52396;SDS011;38322;53.108;6.308;2023-01-05T07:50:58;17.00;;;4.20;;
52396;SDS011;38322;53.108;6.308;2023-01-05T07:53:25;22.88;;;2.92;;
52396;SDS011;38322;53.108;6.308;2023-01-05T07:55:56;20.50;;;2.65;;
52396;SDS011;38322;53.108;6.308;2023-01-05T07:58:23;24.25;;;3.80;;
52396;SDS011;38322;53.108;6.308;2023-01-05T08:00:49;11.98;;;2.53;;
52396;SDS011;38322;53.108;6.308;2023-01-05T08:03:15;13.45;;;2.90;;
52396;SDS011;38322;53.108;6.308;2023-01-05T08:05:41;19.10;;;3.13;;
52396;SDS011;38322;53.108;6.308;2023-01-05T08:08:07;20.02;;;4.15;;
52396;SDS011;38322;53.108;6.308;2023-01-05T08:10:33;14.57;;;3.35;;
52396;SDS011;38322;53.108;6.308;2023-01-05T08:13:01;16.25;;;4.35;;
52396;SDS011;38322;53.108;6.308;2023-01-05T08:15:46;31.50;;;4.32;;
52396;SDS011;38322;53.108;6.308;2023-01-05T08:18:12;22.00;;;4.25;;
52396;SDS011;38322;53.108;6.308;2023-01-05T08:20:38;23.75;;;3.20;;
52396;SDS011;38322;53.108;6.308;2023-01-05T08:23:04;19.98;;;3.10;;
52396;SDS011;38322;53.108;6.308;2023-01-05T08:25:30;28.83;;;4.03;;
52396;SDS011;38322;53.108;6.308;2023-01-05T08:27:56;20.30;;;4.32;;
52396;SDS011;38322;53.108;6.308;2023-01-05T08:30:23;17.33;;;4.25;;
52396;SDS011;38322;53.108;6.308;2023-01-05T08:32:48;10.70;;;1.67;;
52396;SDS011;38322;53.108;6.308;2023-01-05T08:35:14;17.05;;;4.38;;
52396;SDS011;38322;53.108;6.308;2023-01-05T08:37:42;15.70;;;2.97;;
52396;SDS011;38322;53.108;6.308;2023-01-05T08:40:09;20.05;;;3.95;;
52396;SDS011;38322;53.108;6.308;2023-01-05T08:42:35;11.38;;;2.55;;
52396;SDS011;38322;53.108;6.308;2023-01-05T08:45:01;14.65;;;2.60;;
52396;SDS011;38322;53.108;6.308;2023-01-05T08:47:28;20.27;;;3.60;;
52396;SDS011;38322;53.108;6.308;2023-01-05T08:49:54;15.45;;;2.72;;
52396;SDS011;38322;53.108;6.308;2023-01-05T08:52:20;25.15;;;4.88;;
52396;SDS011;38322;53.108;6.308;2023-01-05T08:54:47;19.52;;;3.67;;
52396;SDS011;38322;53.108;6.308;2023-01-05T08:57:13;22.80;;;3.10;;
52396;SDS011;38322;53.108;6.308;2023-01-05T08:59:39;22.00;;;3.15;;
52396;SDS011;38322;53.108;6.308;2023-01-05T09:02:05;18.05;;;3.08;;
52396;SDS011;38322;53.108;6.308;2023-01-05T09:04:35;24.83;;;5.07;;
52396;SDS011;38322;53.108;6.308;2023-01-05T09:07:00;20.60;;;3.97;;
52396;SDS011;38322;53.108;6.308;2023-01-05T09:09:26;23.60;;;3.40;;
52396;SDS011;38322;53.108;6.308;2023-01-05T09:11:52;18.67;;;3.63;;
52396;SDS011;38322;53.108;6.308;2023-01-05T09:14:18;25.58;;;4.15;;
52396;SDS011;38322;53.108;6.308;2023-01-05T09:16:44;16.27;;;2.95;;
52396;SDS011;38322;53.108;6.308;2023-01-05T09:19:10;23.63;;;4.20;;
52396;SDS011;38322;53.108;6.308;2023-01-05T09:21:36;19.63;;;3.67;;
52396;SDS011;38322;53.108;6.308;2023-01-05T09:24:04;21.38;;;5.43;;
52396;SDS011;38322;53.108;6.308;2023-01-05T09:26:31;18.25;;;3.22;;
52396;SDS011;38322;53.108;6.308;2023-01-05T09:28:58;21.27;;;3.35;;
52396;SDS011;38322;53.108;6.308;2023-01-05T09:31:24;14.30;;;3.13;;
52396;SDS011;38322;53.108;6.308;2023-01-05T09:33:50;23.77;;;3.72;;
52396;SDS011;38322;53.108;6.308;2023-01-05T09:36:17;14.02;;;3.45;;
52396;SDS011;38322;53.108;6.308;2023-01-05T09:38:47;22.67;;;3.95;;
52396;SDS011;38322;53.108;6.308;2023-01-05T09:41:19;14.80;;;3.15;;
52396;SDS011;38322;53.108;6.308;2023-01-05T09:43:56;21.35;;;3.75;;
52396;SDS011;38322;53.108;6.308;2023-01-05T09:46:27;17.27;;;2.58;;
52396;SDS011;38322;53.108;6.308;2023-01-05T09:48:59;22.10;;;3.53;;
52396;SDS011;38322;53.108;6.308;2023-01-05T09:51:27;16.95;;;4.10;;
52396;SDS011;38322;53.108;6.308;2023-01-05T09:53:53;23.27;;;4.13;;
52396;SDS011;38322;53.108;6.308;2023-01-05T09:56:24;18.55;;;3.35;;
52396;SDS011;38322;53.108;6.308;2023-01-05T09:59:03;23.13;;;3.22;;
52396;SDS011;38322;53.108;6.308;2023-01-05T10:01:49;25.33;;;3.65;;
52396;SDS011;38322;53.108;6.308;2023-01-05T10:04:18;13.25;;;2.75;;
52396;SDS011;38322;53.108;6.308;2023-01-05T10:06:49;20.13;;;2.63;;
52396;SDS011;38322;53.108;6.308;2023-01-05T10:09:19;19.15;;;3.28;;
52396;SDS011;38322;53.108;6.308;2023-01-05T10:11:50;18.05;;;3.92;;
52396;SDS011;38322;53.108;6.308;2023-01-05T10:14:52;27.30;;;3.30;;
52396;SDS011;38322;53.108;6.308;2023-01-05T10:17:25;20.98;;;3.17;;
52396;SDS011;38322;53.108;6.308;2023-01-05T10:19:53;19.17;;;3.30;;
52396;SDS011;38322;53.108;6.308;2023-01-05T10:25:02;23.65;;;5.25;;
52396;SDS011;38322;53.108;6.308;2023-01-05T10:33:21;20.30;;;4.28;;
52396;SDS011;38322;53.108;6.308;2023-01-05T10:36:00;27.85;;;3.53;;
52396;SDS011;38322;53.108;6.308;2023-01-05T10:38:41;17.92;;;3.97;;
52396;SDS011;38322;53.108;6.308;2023-01-05T10:41:19;19.95;;;4.10;;
52396;SDS011;38322;53.108;6.308;2023-01-05T10:43:56;17.10;;;4.27;;
52396;SDS011;38322;53.108;6.308;2023-01-05T10:46:31;15.68;;;3.58;;
52396;SDS011;38322;53.108;6.308;2023-01-05T10:48:58;21.75;;;3.35;;
52396;SDS011;38322;53.108;6.308;2023-01-05T10:51:24;10.68;;;2.53;;
52396;SDS011;38322;53.108;6.308;2023-01-05T10:53:54;20.13;;;3.42;;
52396;SDS011;38322;53.108;6.308;2023-01-05T10:56:22;22.17;;;3.83;;
52396;SDS011;38322;53.108;6.308;2023-01-05T10:59:07;25.75;;;4.13;;
52396;SDS011;38322;53.108;6.308;2023-01-05T11:01:34;13.77;;;2.90;;
52396;SDS011;38322;53.108;6.308;2023-01-05T11:04:04;10.88;;;2.40;;
52396;SDS011;38322;53.108;6.308;2023-01-05T11:06:33;12.82;;;2.38;;
52396;SDS011;38322;53.108;6.308;2023-01-05T11:12:00;15.43;;;1.77;;
52396;SDS011;38322;53.108;6.308;2023-01-05T11:14:28;11.05;;;1.77;;
52396;SDS011;38322;53.108;6.308;2023-01-05T11:17:00;13.48;;;2.72;;
52396;SDS011;38322;53.108;6.308;2023-01-05T11:19:31;14.45;;;2.90;;
52396;SDS011;38322;53.108;6.308;2023-01-05T11:22:01;12.63;;;2.55;;
52396;SDS011;38322;53.108;6.308;2023-01-05T11:24:28;8.35;;;1.85;;
52396;SDS011;38322;53.108;6.308;2023-01-05T11:26:57;13.48;;;2.47;;
52396;SDS011;38322;53.108;6.308;2023-01-05T11:29:25;16.35;;;2.47;;
52396;SDS011;38322;53.108;6.308;2023-01-05T11:31:53;16.75;;;2.38;;
52396;SDS011;38322;53.108;6.308;2023-01-05T11:34:29;17.73;;;3.50;;
52396;SDS011;38322;53.108;6.308;2023-01-05T11:39:46;17.88;;;2.78;;
52396;SDS011;38322;53.108;6.308;2023-01-05T11:44:44;18.33;;;3.13;;
52396;SDS011;38322;53.108;6.308;2023-01-05T11:49:52;20.02;;;3.03;;
52396;SDS011;38322;53.108;6.308;2023-01-05T11:52:26;20.02;;;4.63;;
52396;SDS011;38322;53.108;6.308;2023-01-05T11:54:58;16.55;;;2.25;;
52396;SDS011;38322;53.108;6.308;2023-01-05T11:57:24;16.35;;;2.88;;
52396;SDS011;38322;53.108;6.308;2023-01-05T11:59:51;16.33;;;3.08;;
52396;SDS011;38322;53.108;6.308;2023-01-05T12:02:36;16.40;;;3.00;;
52396;SDS011;38322;53.108;6.308;2023-01-05T12:05:23;23.55;;;3.45;;
52396;SDS011;38322;53.108;6.308;2023-01-05T12:07:59;15.82;;;2.22;;
52396;SDS011;38322;53.108;6.308;2023-01-05T12:10:35;18.95;;;3.13;;
52396;SDS011;38322;53.108;6.308;2023-01-05T12:16:02;11.77;;;3.15;;
52396;SDS011;38322;53.108;6.308;2023-01-05T12:21:46;18.50;;;3.25;;
52396;SDS011;38322;53.108;6.308;2023-01-05T12:24:33;12.88;;;1.75;;
52396;SDS011;38322;53.108;6.308;2023-01-05T12:30:02;17.00;;;3.13;;
52396;SDS011;38322;53.108;6.308;2023-01-05T12:32:46;19.58;;;3.20;;
52396;SDS011;38322;53.108;6.308;2023-01-05T12:40:36;15.55;;;4.90;;
52396;SDS011;38322;53.108;6.308;2023-01-05T12:43:45;11.70;;;2.10;;
52396;SDS011;38322;53.108;6.308;2023-01-05T12:48:53;17.50;;;3.03;;
52396;SDS011;38322;53.108;6.308;2023-01-05T12:51:31;15.55;;;2.65;;
52396;SDS011;38322;53.108;6.308;2023-01-05T12:56:52;10.75;;;2.03;;
52396;SDS011;38322;53.108;6.308;2023-01-05T12:59:23;15.02;;;3.70;;
52396;SDS011;38322;53.108;6.308;2023-01-05T13:04:39;8.95;;;2.50;;
52396;SDS011;38322;53.108;6.308;2023-01-05T13:07:10;20.90;;;3.20;;
52396;SDS011;38322;53.108;6.308;2023-01-05T13:09:45;21.70;;;4.85;;
52396;SDS011;38322;53.108;6.308;2023-01-05T13:12:18;21.60;;;3.28;;
52396;SDS011;38322;53.108;6.308;2023-01-05T13:14:46;23.30;;;4.05;;
52396;SDS011;38322;53.108;6.308;2023-01-05T13:17:26;16.55;;;3.60;;
52396;SDS011;38322;53.108;6.308;2023-01-05T13:20:01;10.80;;;2.45;;
52396;SDS011;38322;53.108;6.308;2023-01-05T13:22:42;17.90;;;2.72;;
52396;SDS011;38322;53.108;6.308;2023-01-05T13:27:45;25.52;;;4.07;;
52396;SDS011;38322;53.108;6.308;2023-01-05T13:30:14;20.75;;;3.50;;
52396;SDS011;38322;53.108;6.308;2023-01-05T13:40:50;15.93;;;5.65;;
52396;SDS011;38322;53.108;6.308;2023-01-05T13:46:15;29.88;;;4.38;;
52396;SDS011;38322;53.108;6.308;2023-01-05T13:51:35;18.27;;;4.68;;
52396;SDS011;38322;53.108;6.308;2023-01-05T13:54:05;17.80;;;3.90;;
52396;SDS011;38322;53.108;6.308;2023-01-05T13:56:38;23.05;;;4.05;;
52396;SDS011;38322;53.108;6.308;2023-01-05T13:59:06;36.05;;;3.72;;
52396;SDS011;38322;53.108;6.308;2023-01-05T14:01:42;27.13;;;5.57;;
52396;SDS011;38322;53.108;6.308;2023-01-05T14:04:20;24.20;;;3.28;;
52396;SDS011;38322;53.108;6.308;2023-01-05T14:06:50;34.17;;;6.47;;
52396;SDS011;38322;53.108;6.308;2023-01-05T14:26:01;19.98;;;3.40;;
52396;SDS011;38322;53.108;6.308;2023-01-05T14:33:52;18.77;;;4.97;;
52396;SDS011;38322;53.108;6.308;2023-01-05T14:39:05;22.75;;;6.28;;
52396;SDS011;38322;53.108;6.308;2023-01-05T14:41:40;23.35;;;5.60;;
52396;SDS011;38322;53.108;6.308;2023-01-05T14:44:17;34.70;;;6.43;;
52396;SDS011;38322;53.108;6.308;2023-01-05T14:46:46;22.00;;;4.85;;
52396;SDS011;38322;53.108;6.308;2023-01-05T14:49:18;23.20;;;3.83;;
52396;SDS011;38322;53.108;6.308;2023-01-05T14:51:52;20.58;;;5.00;;
52396;SDS011;38322;53.108;6.308;2023-01-05T14:59:55;19.50;;;3.95;;
52396;SDS011;38322;53.108;6.308;2023-01-05T15:02:33;20.05;;;4.40;;
52396;SDS011;38322;53.108;6.308;2023-01-05T15:05:09;17.70;;;3.42;;
52396;SDS011;38322;53.108;6.308;2023-01-05T15:07:42;30.45;;;5.07;;
52396;SDS011;38322;53.108;6.308;2023-01-05T15:16:38;27.00;;;4.57;;
52396;SDS011;38322;53.108;6.308;2023-01-05T15:22:32;22.10;;;4.30;;
52396;SDS011;38322;53.108;6.308;2023-01-05T15:25:36;19.10;;;4.35;;
52396;SDS011;38322;53.108;6.308;2023-01-05T15:28:29;22.77;;;3.83;;
52396;SDS011;38322;53.108;6.308;2023-01-05T15:36:40;32.10;;;5.13;;
52396;SDS011;38322;53.108;6.308;2023-01-05T15:39:26;19.55;;;3.00;;
52396;SDS011;38322;53.108;6.308;2023-01-05T15:41:56;21.40;;;3.53;;
52396;SDS011;38322;53.108;6.308;2023-01-05T15:44:29;17.67;;;3.13;;
52396;SDS011;38322;53.108;6.308;2023-01-05T15:47:00;28.42;;;5.78;;
52396;SDS011;38322;53.108;6.308;2023-01-05T15:49:29;16.73;;;3.80;;
52396;SDS011;38322;53.108;6.308;2023-01-05T15:51:57;16.95;;;4.55;;
52396;SDS011;38322;53.108;6.308;2023-01-05T15:54:25;26.85;;;3.95;;
52396;SDS011;38322;53.108;6.308;2023-01-05T15:56:53;15.43;;;4.00;;
52396;SDS011;38322;53.108;6.308;2023-01-05T16:01:52;19.33;;;3.38;;
52396;SDS011;38322;53.108;6.308;2023-01-05T16:04:18;11.45;;;3.80;;
52396;SDS011;38322;53.108;6.308;2023-01-05T16:06:46;17.45;;;4.10;;
52396;SDS011;38322;53.108;6.308;2023-01-05T16:11:43;22.23;;;4.35;;
52396;SDS011;38322;53.108;6.308;2023-01-05T16:14:13;24.85;;;4.18;;
52396;SDS011;38322;53.108;6.308;2023-01-05T16:16:48;21.58;;;3.88;;
52396;SDS011;38322;53.108;6.308;2023-01-05T16:21:59;22.70;;;4.28;;
52396;SDS011;38322;53.108;6.308;2023-01-05T16:24:31;18.70;;;4.80;;
52396;SDS011;38322;53.108;6.308;2023-01-05T16:27:03;20.30;;;4.20;;
52396;SDS011;38322;53.108;6.308;2023-01-05T16:29:35;30.75;;;3.67;;
52396;SDS011;38322;53.108;6.308;2023-01-05T16:32:04;32.17;;;6.55;;
52396;SDS011;38322;53.108;6.308;2023-01-05T16:34:50;20.42;;;3.67;;
52396;SDS011;38322;53.108;6.308;2023-01-05T16:37:36;24.58;;;4.50;;
52396;SDS011;38322;53.108;6.308;2023-01-05T16:40:02;28.02;;;4.95;;
52396;SDS011;38322;53.108;6.308;2023-01-05T16:42:28;26.20;;;5.50;;
52396;SDS011;38322;53.108;6.308;2023-01-05T16:45:06;27.40;;;6.10;;
52396;SDS011;38322;53.108;6.308;2023-01-05T16:47:41;26.33;;;6.22;;
52396;SDS011;38322;53.108;6.308;2023-01-05T16:52:40;29.65;;;6.13;;
52396;SDS011;38322;53.108;6.308;2023-01-05T16:55:13;31.35;;;6.97;;
52396;SDS011;38322;53.108;6.308;2023-01-05T16:57:52;24.17;;;7.13;;
52396;SDS011;38322;53.108;6.308;2023-01-05T17:02:50;20.27;;;4.82;;
52396;SDS011;38322;53.108;6.308;2023-01-05T17:05:20;29.60;;;6.65;;
52396;SDS011;38322;53.108;6.308;2023-01-05T17:07:49;37.47;;;8.40;;
52396;SDS011;38322;53.108;6.308;2023-01-05T17:10:22;30.60;;;5.65;;
52396;SDS011;38322;53.108;6.308;2023-01-05T17:12:51;41.70;;;6.18;;
52396;SDS011;38322;53.108;6.308;2023-01-05T17:15:21;32.50;;;8.15;;
52396;SDS011;38322;53.108;6.308;2023-01-05T17:17:49;28.45;;;7.50;;
52396;SDS011;38322;53.108;6.308;2023-01-05T17:20:19;25.88;;;5.78;;
52396;SDS011;38322;53.108;6.308;2023-01-05T17:22:45;25.98;;;5.65;;
52396;SDS011;38322;53.108;6.308;2023-01-05T17:25:11;23.23;;;6.07;;
52396;SDS011;38322;53.108;6.308;2023-01-05T17:27:38;28.73;;;6.65;;
52396;SDS011;38322;53.108;6.308;2023-01-05T17:30:10;27.88;;;6.55;;
52396;SDS011;38322;53.108;6.308;2023-01-05T17:32:39;24.88;;;5.47;;
52396;SDS011;38322;53.108;6.308;2023-01-05T17:35:05;29.77;;;7.15;;
52396;SDS011;38322;53.108;6.308;2023-01-05T17:37:31;29.73;;;6.28;;
52396;SDS011;38322;53.108;6.308;2023-01-05T17:39:57;25.60;;;6.32;;
52396;SDS011;38322;53.108;6.308;2023-01-05T17:42:23;24.42;;;6.57;;
52396;SDS011;38322;53.108;6.308;2023-01-05T17:45:08;32.75;;;6.60;;
52396;SDS011;38322;53.108;6.308;2023-01-05T17:47:36;32.15;;;8.15;;
52396;SDS011;38322;53.108;6.308;2023-01-05T17:50:02;29.25;;;6.10;;
52396;SDS011;38322;53.108;6.308;2023-01-05T17:52:29;34.92;;;6.88;;
52396;SDS011;38322;53.108;6.308;2023-01-05T17:54:55;29.27;;;5.95;;
52396;SDS011;38322;53.108;6.308;2023-01-05T17:57:21;35.85;;;6.55;;
52396;SDS011;38322;53.108;6.308;2023-01-05T17:59:47;34.05;;;7.05;;
52396;SDS011;38322;53.108;6.308;2023-01-05T18:02:13;29.90;;;8.65;;
52396;SDS011;38322;53.108;6.308;2023-01-05T18:04:39;30.13;;;6.00;;
52396;SDS011;38322;53.108;6.308;2023-01-05T18:07:05;52.20;;;10.45;;
52396;SDS011;38322;53.108;6.308;2023-01-05T18:09:31;39.50;;;8.65;;
52396;SDS011;38322;53.108;6.308;2023-01-05T18:11:59;34.13;;;7.30;;
52396;SDS011;38322;53.108;6.308;2023-01-05T18:14:25;34.45;;;6.43;;
52396;SDS011;38322;53.108;6.308;2023-01-05T18:16:51;40.13;;;6.78;;
52396;SDS011;38322;53.108;6.308;2023-01-05T18:19:17;39.10;;;8.15;;
52396;SDS011;38322;53.108;6.308;2023-01-05T18:21:43;48.10;;;7.32;;
52396;SDS011;38322;53.108;6.308;2023-01-05T18:24:09;26.30;;;6.63;;
52396;SDS011;38322;53.108;6.308;2023-01-05T18:26:35;31.05;;;7.22;;
52396;SDS011;38322;53.108;6.308;2023-01-05T18:29:01;43.47;;;6.13;;
52396;SDS011;38322;53.108;6.308;2023-01-05T18:31:27;29.00;;;7.43;;
52396;SDS011;38322;53.108;6.308;2023-01-05T18:33:53;36.83;;;7.03;;
52396;SDS011;38322;53.108;6.308;2023-01-05T18:36:19;40.58;;;7.72;;
52396;SDS011;38322;53.108;6.308;2023-01-05T18:38:44;32.80;;;8.10;;
52396;SDS011;38322;53.108;6.308;2023-01-05T18:41:10;37.25;;;6.80;;
52396;SDS011;38322;53.108;6.308;2023-01-05T18:43:37;36.00;;;6.70;;
52396;SDS011;38322;53.108;6.308;2023-01-05T18:46:03;41.03;;;8.07;;
52396;SDS011;38322;53.108;6.308;2023-01-05T18:48:30;30.75;;;8.30;;
52396;SDS011;38322;53.108;6.308;2023-01-05T18:50:56;30.42;;;6.30;;
52396;SDS011;38322;53.108;6.308;2023-01-05T18:53:22;28.27;;;6.97;;
52396;SDS011;38322;53.108;6.308;2023-01-05T18:55:49;32.03;;;8.70;;
52396;SDS011;38322;53.108;6.308;2023-01-05T18:58:15;20.13;;;5.28;;
52396;SDS011;38322;53.108;6.308;2023-01-05T19:00:42;36.80;;;7.43;;
52396;SDS011;38322;53.108;6.308;2023-01-05T19:03:09;33.80;;;9.55;;
52396;SDS011;38322;53.108;6.308;2023-01-05T19:05:37;35.63;;;8.32;;
52396;SDS011;38322;53.108;6.308;2023-01-05T19:08:05;34.47;;;7.28;;
52396;SDS011;38322;53.108;6.308;2023-01-05T19:10:31;28.30;;;7.72;;
52396;SDS011;38322;53.108;6.308;2023-01-05T19:12:57;29.65;;;8.20;;
52396;SDS011;38322;53.108;6.308;2023-01-05T19:15:23;23.10;;;7.70;;
52396;SDS011;38322;53.108;6.308;2023-01-05T19:17:49;21.25;;;6.65;;
52396;SDS011;38322;53.108;6.308;2023-01-05T19:20:17;28.13;;;8.80;;
52396;SDS011;38322;53.108;6.308;2023-01-05T19:22:44;20.95;;;7.88;;
52396;SDS011;38322;53.108;6.308;2023-01-05T19:25:12;30.30;;;8.10;;
52396;SDS011;38322;53.108;6.308;2023-01-05T19:27:38;22.95;;;7.53;;
52396;SDS011;38322;53.108;6.308;2023-01-05T19:30:07;20.42;;;6.93;;
52396;SDS011;38322;53.108;6.308;2023-01-05T19:32:33;14.98;;;7.78;;
52396;SDS011;38322;53.108;6.308;2023-01-05T19:35:01;17.17;;;7.15;;
52396;SDS011;38322;53.108;6.308;2023-01-05T19:37:29;18.77;;;7.90;;
52396;SDS011;38322;53.108;6.308;2023-01-05T19:39:57;21.30;;;7.65;;
52396;SDS011;38322;53.108;6.308;2023-01-05T19:42:23;17.23;;;8.52;;
52396;SDS011;38322;53.108;6.308;2023-01-05T19:44:49;27.55;;;9.63;;
52396;SDS011;38322;53.108;6.308;2023-01-05T19:47:15;18.75;;;7.70;;
52396;SDS011;38322;53.108;6.308;2023-01-05T19:49:41;27.65;;;8.02;;
52396;SDS011;38322;53.108;6.308;2023-01-05T19:52:07;22.33;;;8.90;;
52396;SDS011;38322;53.108;6.308;2023-01-05T19:54:33;12.90;;;8.35;;
52396;SDS011;38322;53.108;6.308;2023-01-05T19:56:58;15.52;;;8.15;;
52396;SDS011;38322;53.108;6.308;2023-01-05T19:59:24;19.38;;;9.93;;
52396;SDS011;38322;53.108;6.308;2023-01-05T20:01:57;23.33;;;10.05;;
52396;SDS011;38322;53.108;6.308;2023-01-05T20:04:25;20.23;;;10.93;;
52396;SDS011;38322;53.108;6.308;2023-01-05T20:06:51;28.17;;;11.20;;
52396;SDS011;38322;53.108;6.308;2023-01-05T20:09:18;24.17;;;11.00;;
52396;SDS011;38322;53.108;6.308;2023-01-05T20:11:45;26.75;;;11.02;;
52396;SDS011;38322;53.108;6.308;2023-01-05T20:16:41;21.52;;;11.68;;
52396;SDS011;38322;53.108;6.308;2023-01-05T20:19:11;19.48;;;9.38;;
52396;SDS011;38322;53.108;6.308;2023-01-05T20:21:37;29.83;;;10.68;;
52396;SDS011;38322;53.108;6.308;2023-01-05T20:24:03;21.15;;;11.25;;
52396;SDS011;38322;53.108;6.308;2023-01-05T20:26:34;21.67;;;10.80;;
52396;SDS011;38322;53.108;6.308;2023-01-05T20:29:00;25.55;;;9.80;;
52396;SDS011;38322;53.108;6.308;2023-01-05T20:31:29;25.95;;;11.48;;
52396;SDS011;38322;53.108;6.308;2023-01-05T20:33:58;25.95;;;11.07;;
52396;SDS011;38322;53.108;6.308;2023-01-05T20:36:28;19.27;;;10.23;;
52396;SDS011;38322;53.108;6.308;2023-01-05T20:38:55;27.20;;;10.88;;
52396;SDS011;38322;53.108;6.308;2023-01-05T20:41:23;23.02;;;9.95;;
52396;SDS011;38322;53.108;6.308;2023-01-05T20:43:51;27.42;;;12.32;;
52396;SDS011;38322;53.108;6.308;2023-01-05T20:46:18;27.30;;;12.60;;
52396;SDS011;38322;53.108;6.308;2023-01-05T20:48:47;21.63;;;12.15;;
52396;SDS011;38322;53.108;6.308;2023-01-05T20:51:14;24.90;;;11.85;;
52396;SDS011;38322;53.108;6.308;2023-01-05T20:53:40;23.08;;;11.98;;
52396;SDS011;38322;53.108;6.308;2023-01-05T20:56:08;24.75;;;12.15;;
52396;SDS011;38322;53.108;6.308;2023-01-05T20:58:37;23.45;;;13.32;;
